Aviation Digital Data Service (ADDS)

Output produced by METARs form (1240 UTC 22 March 2019)
found at http://www.aviationweather.gov/metar/data/
 
METAR text: OMDW 221200Z 02017KT 3500 1000SE R30/1500U BLDU NSC 29/10 Q1013 TEMPO 1500
Conditions at: OMDW (DUBAI AL MAKTOUM, AE) observed 1200 UTC 22 March 2019
Temperature: 29.0°C (84°F)
Dewpoint: 10.0°C (50°F) [RH = 31%]
Pressure (altimeter): 29.91 inches Hg (1013.0 mb)
Winds: from the NNE (20 degrees) at 20 MPH (17 knots; 8.7 m/s)
Visibility: 2.17 miles (3.49 km)
Ceiling: at least 12,000 feet AGL
Clouds: sky clear below 12,000 feet AGL
Weather: BLDU  (blowing dust)

METAR text: OMDW 221100Z 02014KT 5000 DU NSC 30/11 Q1013 NOSIG
Conditions at: OMDW (DUBAI AL MAKTOUM, AE) observed 1100 UTC 22 March 2019
Temperature: 30.0°C (86°F)
Dewpoint: 11.0°C (52°F) [RH = 31%]
Pressure (altimeter): 29.91 inches Hg (1013.0 mb)
Winds: from the NNE (20 degrees) at 16 MPH (14 knots; 7.2 m/s)
Visibility: 3 miles ( 5 km)
Ceiling: at least 12,000 feet AGL
Clouds: sky clear below 12,000 feet AGL
Weather: DU  (widespread dust)

METAR text: OMDW 221000Z 05008KT 360V070 CAVOK 31/09 Q1014 NOSIG
Conditions at: OMDW (DUBAI AL MAKTOUM, AE) observed 1000 UTC 22 March 2019
Temperature: 31.0°C (88°F)
Dewpoint: 9.0°C (48°F) [RH = 26%]
Pressure (altimeter): 29.94 inches Hg (1014.0 mb)
Winds: from the NE (50 degrees) at 9 MPH (8 knots; 4.1 m/s)
Visibility: 6 or more miles (10+ km)
Ceiling: ceiling and visibility are OK
Clouds: unknown
Weather: no significant weather observed at this time

METAR text: OMDW 220900Z 06005KT 9999 -RA NSC 31/08 Q1015 TEMPO VRB15G25KT FEW040TCU
Conditions at: OMDW (DUBAI AL MAKTOUM, AE) observed 0900 UTC 22 March 2019
Temperature: 31.0°C (88°F)
Dewpoint: 8.0°C (46°F) [RH = 24%]
Pressure (altimeter): 29.97 inches Hg (1015.0 mb)
Winds: from the ENE (60 degrees) at 6 MPH (5 knots; 2.6 m/s)
Visibility: 6 or more miles (10+ km)
Ceiling: at least 12,000 feet AGL
Clouds: sky clear below 12,000 feet AGL
Weather: -RA  (light rain)

METAR text: OMDW 220800Z 11010KT CAVOK 31/08 Q1015 TEMPO VRB15G25KT FEW040TCU
Conditions at: OMDW (DUBAI AL MAKTOUM, AE) observed 0800 UTC 22 March 2019
Temperature: 31.0°C (88°F)
Dewpoint: 8.0°C (46°F) [RH = 24%]
Pressure (altimeter): 29.97 inches Hg (1015.0 mb)
Winds: from the ESE (110 degrees) at 12 MPH (10 knots; 5.1 m/s)
Visibility: 6 or more miles (10+ km)
Ceiling: ceiling and visibility are OK
Clouds: unknown
Weather: no significant weather observed at this time

METAR text: OMDW 220700Z 10013KT CAVOK 30/09 Q1016 NOSIG
Conditions at: OMDW (DUBAI AL MAKTOUM, AE) observed 0700 UTC 22 March 2019
Temperature: 30.0°C (86°F)
Dewpoint: 9.0°C (48°F) [RH = 27%]
Pressure (altimeter): 30.00 inches Hg (1016.0 mb)
Winds: from the E (100 degrees) at 15 MPH (13 knots; 6.7 m/s)
Visibility: 6 or more miles (10+ km)
Ceiling: ceiling and visibility are OK
Clouds: unknown
Weather: no significant weather observed at this time

METAR text: OMDW 220600Z 07011KT CAVOK 27/12 Q1016 NOSIG
Conditions at: OMDW (DUBAI AL MAKTOUM, AE) observed 0600 UTC 22 March 2019
Temperature: 27.0°C (81°F)
Dewpoint: 12.0°C (54°F) [RH = 39%]
Pressure (altimeter): 30.00 inches Hg (1016.0 mb)
Winds: from the ENE (70 degrees) at 13 MPH (11 knots; 5.7 m/s)
Visibility: 6 or more miles (10+ km)
Ceiling: ceiling and visibility are OK
Clouds: unknown
Weather: no significant weather observed at this time

METAR text: OMDW 220500Z 05010KT CAVOK 24/15 Q1016 TEMPO VRB15G25KT
Conditions at: OMDW (DUBAI AL MAKTOUM, AE) observed 0500 UTC 22 March 2019
Temperature: 24.0°C (75°F)
Dewpoint: 15.0°C (59°F) [RH = 57%]
Pressure (altimeter): 30.00 inches Hg (1016.0 mb)
Winds: from the NE (50 degrees) at 12 MPH (10 knots; 5.1 m/s)
Visibility: 6 or more miles (10+ km)
Ceiling: ceiling and visibility are OK
Clouds: unknown
Weather: no significant weather observed at this time

METAR text: OMDW 220400Z 06009KT CAVOK 21/17 Q1016 TEMPO VRB15G25KT
Conditions at: OMDW (DUBAI AL MAKTOUM, AE) observed 0400 UTC 22 March 2019
Temperature: 21.0°C (70°F)
Dewpoint: 17.0°C (63°F) [RH = 78%]
Pressure (altimeter): 30.00 inches Hg (1016.0 mb)
Winds: from the ENE (60 degrees) at 10 MPH (9 knots; 4.6 m/s)
Visibility: 6 or more miles (10+ km)
Ceiling: ceiling and visibility are OK
Clouds: unknown
Weather: no significant weather observed at this time

METAR text: OMDW 220300Z 11009KT 7000 NSC 21/16 Q1015 TEMPO VRB15G25KT 2000 TSRA FEW040CB
Conditions at: OMDW (DUBAI AL MAKTOUM, AE) observed 0300 UTC 22 March 2019
Temperature: 21.0°C (70°F)
Dewpoint: 16.0°C (61°F) [RH = 73%]
Pressure (altimeter): 29.97 inches Hg (1015.0 mb)
Winds: from the ESE (110 degrees) at 10 MPH (9 knots; 4.6 m/s)
Visibility: 4 miles ( 7 km)
Ceiling: at least 12,000 feet AGL
Clouds: sky clear below 12,000 feet AGL
Weather: no significant weather observed at this time

METAR text: OMDW 220200Z 34004KT 300V020 6000 NSC 19/17 Q1015 TEMPO VRB15G25KT 2000 TSRA FEW040CB
Conditions at: OMDW (DUBAI AL MAKTOUM, AE) observed 0200 UTC 22 March 2019
Temperature: 19.0°C (66°F)
Dewpoint: 17.0°C (63°F) [RH = 88%]
Pressure (altimeter): 29.97 inches Hg (1015.0 mb)
Winds: from the NNW (340 degrees) at 5 MPH (4 knots; 2.1 m/s)
Visibility: 4 miles ( 6 km)
Ceiling: at least 12,000 feet AGL
Clouds: sky clear below 12,000 feet AGL
Weather: no significant weather observed at this time

METAR text: OMDW 220000Z 20007KT 160V230 8000 -RA NSC 21/17 Q1015 WS ALL RWY TEMPO VRB15G25KT 3000 TSRA FEW040CB
Conditions at: OMDW (DUBAI AL MAKTOUM, AE) observed 0000 UTC 22 March 2019
Temperature: 21.0°C (70°F)
Dewpoint: 17.0°C (63°F) [RH = 78%]
Pressure (altimeter): 29.97 inches Hg (1015.0 mb)
Winds: from the SSW (200 degrees) at 8 MPH (7 knots; 3.6 m/s)
Visibility: 5 miles ( 8 km)
Ceiling: at least 12,000 feet AGL
Clouds: sky clear below 12,000 feet AGL
Weather: -RA  (light rain)

METAR text: OMDW 212300Z VRB05KT 9000 NSC 21/16 Q1012 RETS WS ALL RWY TEMPO VRB15G25KT 3000 TSRA
Conditions at: OMDW (DUBAI AL MAKTOUM, AE) observed 2300 UTC 21 March 2019
Temperature: 21.0°C (70°F)
Dewpoint: 16.0°C (61°F) [RH = 73%]
Pressure (altimeter): 29.88 inches Hg (1012.0 mb)
Winds: variable direction winds at 6 MPH (5 knots; 2.6 m/s)
Visibility: 6 miles ( 9 km)
Ceiling: at least 12,000 feet AGL
Clouds: sky clear below 12,000 feet AGL
Weather: no significant weather observed at this time

METAR text: OMDW 212200Z 05006KT 010V130 9000 NSC 21/17 Q1013 WS ALL RWY TEMPO VRB15G25KT 3000 TSRA FEW040CB
Conditions at: OMDW (DUBAI AL MAKTOUM, AE) observed 2200 UTC 21 March 2019
Temperature: 21.0°C (70°F)
Dewpoint: 17.0°C (63°F) [RH = 78%]
Pressure (altimeter): 29.91 inches Hg (1013.0 mb)
Winds: from the NE (50 degrees) at 7 MPH (6 knots; 3.1 m/s)
Visibility: 6 miles ( 9 km)
Ceiling: at least 12,000 feet AGL
Clouds: sky clear below 12,000 feet AGL
Weather: no significant weather observed at this time

METAR text: OMDW 212100Z 35010KT 8000 -RA 21/17 Q1013 WS ALL RWY TEMPO VRB15G25KT 3000 TSRA FEW040CB
Conditions at: OMDW (DUBAI AL MAKTOUM, AE) observed 2100 UTC 21 March 2019
Temperature: 21.0°C (70°F)
Dewpoint: 17.0°C (63°F) [RH = 78%]
Pressure (altimeter): 29.91 inches Hg (1013.0 mb)
Winds: from the N (350 degrees) at 12 MPH (10 knots; 5.1 m/s)
Visibility: 5 miles ( 8 km)
Ceiling: unknown
Clouds: missing
Weather: -RA  (light rain)

METAR text: OMDW 212000Z VRB02KT CAVOK 21/17 Q1014 NOSIG
Conditions at: OMDW (DUBAI AL MAKTOUM, AE) observed 2000 UTC 21 March 2019
Temperature: 21.0°C (70°F)
Dewpoint: 17.0°C (63°F) [RH = 78%]
Pressure (altimeter): 29.94 inches Hg (1014.0 mb)
Winds: variable direction winds at 2 MPH (2 knots; 1.0 m/s)
Visibility: 6 or more miles (10+ km)
Ceiling: ceiling and visibility are OK
Clouds: unknown
Weather: no significant weather observed at this time

METAR text: OMDW 211900Z 12007KT 100V160 CAVOK 22/17 Q1013 NOSIG
Conditions at: OMDW (DUBAI AL MAKTOUM, AE) observed 1900 UTC 21 March 2019
Temperature: 22.0°C (72°F)
Dewpoint: 17.0°C (63°F) [RH = 73%]
Pressure (altimeter): 29.91 inches Hg (1013.0 mb)
Winds: from the ESE (120 degrees) at 8 MPH (7 knots; 3.6 m/s)
Visibility: 6 or more miles (10+ km)
Ceiling: ceiling and visibility are OK
Clouds: unknown
Weather: no significant weather observed at this time

METAR text: OMDW 211800Z 34005KT CAVOK 21/17 Q1015 NOSIG
Conditions at: OMDW (DUBAI AL MAKTOUM, AE) observed 1800 UTC 21 March 2019
Temperature: 21.0°C (70°F)
Dewpoint: 17.0°C (63°F) [RH = 78%]
Pressure (altimeter): 29.97 inches Hg (1015.0 mb)
Winds: from the NNW (340 degrees) at 6 MPH (5 knots; 2.6 m/s)
Visibility: 6 or more miles (10+ km)
Ceiling: ceiling and visibility are OK
Clouds: unknown
Weather: no significant weather observed at this time

METAR text: OMDW 211700Z 01007KT CAVOK 21/17 Q1014 NOSIG
Conditions at: OMDW (DUBAI AL MAKTOUM, AE) observed 1700 UTC 21 March 2019
Temperature: 21.0°C (70°F)
Dewpoint: 17.0°C (63°F) [RH = 78%]
Pressure (altimeter): 29.94 inches Hg (1014.0 mb)
Winds: from the N (10 degrees) at 8 MPH (7 knots; 3.6 m/s)
Visibility: 6 or more miles (10+ km)
Ceiling: ceiling and visibility are OK
Clouds: unknown
Weather: no significant weather observed at this time

METAR text: OMDW 211600Z 36005KT CAVOK 21/17 Q1014 NOSIG
Conditions at: OMDW (DUBAI AL MAKTOUM, AE) observed 1600 UTC 21 March 2019
Temperature: 21.0°C (70°F)
Dewpoint: 17.0°C (63°F) [RH = 78%]
Pressure (altimeter): 29.94 inches Hg (1014.0 mb)
Winds: from the N (360 degrees) at 6 MPH (5 knots; 2.6 m/s)
Visibility: 6 or more miles (10+ km)
Ceiling: ceiling and visibility are OK
Clouds: unknown
Weather: no significant weather observed at this time

METAR text: OMDW 211500Z 33008KT CAVOK 22/17 Q1013 NOSIG
Conditions at: OMDW (DUBAI AL MAKTOUM, AE) observed 1500 UTC 21 March 2019
Temperature: 22.0°C (72°F)
Dewpoint: 17.0°C (63°F) [RH = 73%]
Pressure (altimeter): 29.91 inches Hg (1013.0 mb)
Winds: from the NNW (330 degrees) at 9 MPH (8 knots; 4.1 m/s)
Visibility: 6 or more miles (10+ km)
Ceiling: ceiling and visibility are OK
Clouds: unknown
Weather: no significant weather observed at this time

METAR text: OMDW 211400Z 33012KT CAVOK 24/15 Q1013 NOSIG
Conditions at: OMDW (DUBAI AL MAKTOUM, AE) observed 1400 UTC 21 March 2019
Temperature: 24.0°C (75°F)
Dewpoint: 15.0°C (59°F) [RH = 57%]
Pressure (altimeter): 29.91 inches Hg (1013.0 mb)
Winds: from the NNW (330 degrees) at 14 MPH (12 knots; 6.2 m/s)
Visibility: 6 or more miles (10+ km)
Ceiling: ceiling and visibility are OK
Clouds: unknown
Weather: no significant weather observed at this time

METAR text: OMDW 211300Z 33014KT 8000 NSC 25/14 Q1012 NOSIG
Conditions at: OMDW (DUBAI AL MAKTOUM, AE) observed 1300 UTC 21 March 2019
Temperature: 25.0°C (77°F)
Dewpoint: 14.0°C (57°F) [RH = 50%]
Pressure (altimeter): 29.88 inches Hg (1012.0 mb)
Winds: from the NNW (330 degrees) at 16 MPH (14 knots; 7.2 m/s)
Visibility: 5 miles ( 8 km)
Ceiling: at least 12,000 feet AGL
Clouds: sky clear below 12,000 feet AGL
Weather: no significant weather observed at this time

METAR text: OMDW 211200Z 34015KT 8000 3000NE BLDU NSC 28/10 Q1012 NOSIG
Conditions at: OMDW (DUBAI AL MAKTOUM, AE) observed 1200 UTC 21 March 2019
Temperature: 28.0°C (82°F)
Dewpoint: 10.0°C (50°F) [RH = 32%]
Pressure (altimeter): 29.88 inches Hg (1012.0 mb)
Winds: from the NNW (340 degrees) at 17 MPH (15 knots; 7.7 m/s)
Visibility: 5 miles ( 8 km)
Ceiling: at least 12,000 feet AGL
Clouds: sky clear below 12,000 feet AGL
Weather: BLDU  (blowing dust)

METAR text: OMDW 211100Z 34011KT CAVOK 29/14 Q1012 NOSIG
Conditions at: OMDW (DUBAI AL MAKTOUM, AE) observed 1100 UTC 21 March 2019
Temperature: 29.0°C (84°F)
Dewpoint: 14.0°C (57°F) [RH = 40%]
Pressure (altimeter): 29.88 inches Hg (1012.0 mb)
Winds: from the NNW (340 degrees) at 13 MPH (11 knots; 5.7 m/s)
Visibility: 6 or more miles (10+ km)
Ceiling: ceiling and visibility are OK
Clouds: unknown
Weather: no significant weather observed at this time

METAR text: OMDW 211000Z 01004KT 300V090 CAVOK 29/08 Q1013 NOSIG
Conditions at: OMDW (DUBAI AL MAKTOUM, AE) observed 1000 UTC 21 March 2019
Temperature: 29.0°C (84°F)
Dewpoint: 8.0°C (46°F) [RH = 27%]
Pressure (altimeter): 29.91 inches Hg (1013.0 mb)
Winds: from the N (10 degrees) at 5 MPH (4 knots; 2.1 m/s)
Visibility: 6 or more miles (10+ km)
Ceiling: ceiling and visibility are OK
Clouds: unknown
Weather: no significant weather observed at this time

METAR text: OMDW 210900Z 05003KT 360V130 CAVOK 27/06 Q1014 BECMG 31010KT
Conditions at: OMDW (DUBAI AL MAKTOUM, AE) observed 0900 UTC 21 March 2019
Temperature: 27.0°C (81°F)
Dewpoint: 6.0°C (43°F) [RH = 26%]
Pressure (altimeter): 29.94 inches Hg (1014.0 mb)
Winds: from the NE (50 degrees) at 3 MPH (3 knots; 1.5 m/s)
Visibility: 6 or more miles (10+ km)
Ceiling: ceiling and visibility are OK
Clouds: unknown
Weather: no significant weather observed at this time

METAR text: OMDW 210800Z 04003KT 310V090 CAVOK 26/11 Q1015 BECMG 31010KT
Conditions at: OMDW (DUBAI AL MAKTOUM, AE) observed 0800 UTC 21 March 2019
Temperature: 26.0°C (79°F)
Dewpoint: 11.0°C (52°F) [RH = 39%]
Pressure (altimeter): 29.97 inches Hg (1015.0 mb)
Winds: from the NE (40 degrees) at 3 MPH (3 knots; 1.5 m/s)
Visibility: 6 or more miles (10+ km)
Ceiling: ceiling and visibility are OK
Clouds: unknown
Weather: no significant weather observed at this time

METAR text: OMDW 210700Z 09004KT 030V130 CAVOK 23/14 Q1015 NOSIG
Conditions at: OMDW (DUBAI AL MAKTOUM, AE) observed 0700 UTC 21 March 2019
Temperature: 23.0°C (73°F)
Dewpoint: 14.0°C (57°F) [RH = 57%]
Pressure (altimeter): 29.97 inches Hg (1015.0 mb)
Winds: from the E (90 degrees) at 5 MPH (4 knots; 2.1 m/s)
Visibility: 6 or more miles (10+ km)
Ceiling: ceiling and visibility are OK
Clouds: unknown
Weather: no significant weather observed at this time

METAR text: OMDW 210600Z 14003KT 080V180 CAVOK 21/16 Q1015 NOSIG
Conditions at: OMDW (DUBAI AL MAKTOUM, AE) observed 0600 UTC 21 March 2019
Temperature: 21.0°C (70°F)
Dewpoint: 16.0°C (61°F) [RH = 73%]
Pressure (altimeter): 29.97 inches Hg (1015.0 mb)
Winds: from the SE (140 degrees) at 3 MPH (3 knots; 1.5 m/s)
Visibility: 6 or more miles (10+ km)
Ceiling: ceiling and visibility are OK
Clouds: unknown
Weather: no significant weather observed at this time

METAR text: OMDW 210500Z 14005KT CAVOK 19/15 Q1015 NOSIG
Conditions at: OMDW (DUBAI AL MAKTOUM, AE) observed 0500 UTC 21 March 2019
Temperature: 19.0°C (66°F)
Dewpoint: 15.0°C (59°F) [RH = 78%]
Pressure (altimeter): 29.97 inches Hg (1015.0 mb)
Winds: from the SE (140 degrees) at 6 MPH (5 knots; 2.6 m/s)
Visibility: 6 or more miles (10+ km)
Ceiling: ceiling and visibility are OK
Clouds: unknown
Weather: no significant weather observed at this time

METAR text: OMDW 210400Z 15005KT CAVOK 17/14 Q1015 NOSIG
Conditions at: OMDW (DUBAI AL MAKTOUM, AE) observed 0400 UTC 21 March 2019
Temperature: 17.0°C (63°F)
Dewpoint: 14.0°C (57°F) [RH = 82%]
Pressure (altimeter): 29.97 inches Hg (1015.0 mb)
Winds: from the SSE (150 degrees) at 6 MPH (5 knots; 2.6 m/s)
Visibility: 6 or more miles (10+ km)
Ceiling: ceiling and visibility are OK
Clouds: unknown
Weather: no significant weather observed at this time

METAR text: OMDW 210300Z 14005KT CAVOK 16/13 Q1014 NOSIG
Conditions at: OMDW (DUBAI AL MAKTOUM, AE) observed 0300 UTC 21 March 2019
Temperature: 16.0°C (61°F)
Dewpoint: 13.0°C (55°F) [RH = 82%]
Pressure (altimeter): 29.94 inches Hg (1014.0 mb)
Winds: from the SE (140 degrees) at 6 MPH (5 knots; 2.6 m/s)
Visibility: 6 or more miles (10+ km)
Ceiling: ceiling and visibility are OK
Clouds: unknown
Weather: no significant weather observed at this time

METAR text: OMDW 210200Z 16006KT CAVOK 15/13 Q1014 NOSIG
Conditions at: OMDW (DUBAI AL MAKTOUM, AE) observed 0200 UTC 21 March 2019
Temperature: 15.0°C (59°F)
Dewpoint: 13.0°C (55°F) [RH = 88%]
Pressure (altimeter): 29.94 inches Hg (1014.0 mb)
Winds: from the SSE (160 degrees) at 7 MPH (6 knots; 3.1 m/s)
Visibility: 6 or more miles (10+ km)
Ceiling: ceiling and visibility are OK
Clouds: unknown
Weather: no significant weather observed at this time

METAR text: OMDW 210100Z 13005KT CAVOK 14/13 Q1013 NOSIG
Conditions at: OMDW (DUBAI AL MAKTOUM, AE) observed 0100 UTC 21 March 2019
Temperature: 14.0°C (57°F)
Dewpoint: 13.0°C (55°F) [RH = 94%]
Pressure (altimeter): 29.91 inches Hg (1013.0 mb)
Winds: from the SE (130 degrees) at 6 MPH (5 knots; 2.6 m/s)
Visibility: 6 or more miles (10+ km)
Ceiling: ceiling and visibility are OK
Clouds: unknown
Weather: no significant weather observed at this time

Forecast for: AMD
Text: TAF AMD OMDW 221217Z 2212/2318 02014KT 7000 NSC
Forecast period: 1200 to 1500 UTC 22 March 2019
Forecast type: FROM: standard forecast or significant change
Winds: from the NNE (20 degrees) at 16 MPH (14 knots; 7.2 m/s)
Visibility: 4 miles (7 km)
Ceiling: unknown
Clouds: missing
Weather: no significant weather forecast for this period
Text: PROB30
Forecast period: 1200 to 2200 UTC 22 March 2019
Forecast type: TEMPORARY: The following changes expected for less than half the time period
Winds: variable direction winds at 21 MPH (18 knots; 9.3 m/s)
gusting to 32 MPH (28 knots; 14.4 m/s)
Visibility: 0.93 miles (1.50 km)
Ceiling: at least 12,000 feet AGL
Clouds: few clouds at 4000 feet AGL
Weather: SHRA BLDU  (rain showers, blowing dust)
Text: TEMPO 2212/2222 VRB18G28KT 1500 SHRA BLDU FEW040TCU
Forecast period: 1500 UTC 22 March 2019 to 0200 UTC 23 March 2019
Forecast type: BECOMING: Conditions expected to become as follows by 1700 UTC 22 March 2019
Winds: from the E (80 degrees) at 9 MPH (8 knots; 4.1 m/s)
Visibility: 4 miles (7 km)
Ceiling: unknown
Clouds: missing
Weather: no significant weather forecast for this period
Text: BECMG 2215/2217 08008KT
Forecast period: 2200 UTC 22 March 2019 to 1200 UTC 23 March 2019
Forecast type: TEMPORARY: The following changes expected for less than half the time period
Winds: variable direction winds at 29 MPH (25 knots; 12.9 m/s)
gusting to 46 MPH (40 knots; 20.6 m/s)
Visibility: 0.93 miles (1.50 km)
Ceiling: at least 12,000 feet AGL
Clouds: scattered clouds at 3500 feet AGL
Weather: TSRA BLDU  (rain associated with thunderstorm(s), blowing dust)
Text: PROB30
Forecast period: 0200 to 1100 UTC 23 March 2019
Forecast type: BECOMING: Conditions expected to become as follows by 0400 UTC 23 March 2019
Winds: from the SSE (160 degrees) at 17 MPH (15 knots; 7.7 m/s)
Visibility: 4 miles (7 km)
Ceiling: unknown
Clouds: missing
Weather: no significant weather forecast for this period
Text: TEMPO 2222/2312 VRB25G40KT 1500 TSRA BLDU SCT035CB
Forecast period: 0500 to 1100 UTC 23 March 2019
Forecast type: PROBABLE: 40 percent likelihood of the following during this time
Winds: from the SSE (160 degrees) at 23 MPH (20 knots; 10.3 m/s)
gusting to 34 MPH (30 knots; 15.4 m/s)
Visibility: 1.86 miles (2.99 km)
Ceiling: unknown
Clouds: missing
Weather: BLDU  (blowing dust)
Text: BECMG 2302/2304 16015KT
Forecast period: 1100 to 1400 UTC 23 March 2019
Forecast type: BECOMING: Conditions expected to become as follows by 1300 UTC 23 March 2019
Winds: from the N (360 degrees) at 17 MPH (15 knots; 7.7 m/s)
Visibility: 4 miles (7 km)
Ceiling: unknown
Clouds: missing
Weather: no significant weather forecast for this period
Text: PROB40 2305/2311 16020G30KT 3000 BLDU
Forecast period: 1400 to 1800 UTC 23 March 2019
Forecast type: BECOMING: Conditions expected to become as follows by 1600 UTC 23 March 2019
Winds: from the ENE (70 degrees) at 10 MPH (9 knots; 4.6 m/s)
Visibility: 4 miles (7 km)
Ceiling: unknown
Clouds: missing
Weather: no significant weather forecast for this period